sensor_id;sensor_type;location;lat;lon;timestamp;temperature;humidity
49679;DHT22;35570;48.218;16.326;2023-01-28T00:00:07;2.40;99.70
49679;DHT22;35570;48.218;16.326;2023-01-28T00:02:34;2.40;99.50
49679;DHT22;35570;48.218;16.326;2023-01-28T00:05:00;2.40;99.50
49679;DHT22;35570;48.218;16.326;2023-01-28T00:07:26;2.40;99.50
49679;DHT22;35570;48.218;16.326;2023-01-28T00:09:52;2.40;99.50
49679;DHT22;35570;48.218;16.326;2023-01-28T00:12:18;2.40;99.60
49679;DHT22;35570;48.218;16.326;2023-01-28T00:14:43;2.40;99.50
49679;DHT22;35570;48.218;16.326;2023-01-28T00:17:10;2.40;99.50
49679;DHT22;35570;48.218;16.326;2023-01-28T00:19:36;2.40;99.40
49679;DHT22;35570;48.218;16.326;2023-01-28T00:22:02;2.40;99.50
49679;DHT22;35570;48.218;16.326;2023-01-28T00:24:29;2.30;99.50
49679;DHT22;35570;48.218;16.326;2023-01-28T00:26:54;2.40;99.30
49679;DHT22;35570;48.218;16.326;2023-01-28T00:29:20;2.30;99.20
49679;DHT22;35570;48.218;16.326;2023-01-28T00:31:46;2.30;99.30
49679;DHT22;35570;48.218;16.326;2023-01-28T00:34:11;2.40;99.30
49679;DHT22;35570;48.218;16.326;2023-01-28T00:36:37;2.30;99.30
49679;DHT22;35570;48.218;16.326;2023-01-28T00:39:04;2.40;99.40
49679;DHT22;35570;48.218;16.326;2023-01-28T00:41:30;2.30;99.40
49679;DHT22;35570;48.218;16.326;2023-01-28T00:43:57;2.30;99.40
49679;DHT22;35570;48.218;16.326;2023-01-28T00:46:23;2.40;99.40
49679;DHT22;35570;48.218;16.326;2023-01-28T00:48:52;2.30;99.40
49679;DHT22;35570;48.218;16.326;2023-01-28T00:51:18;2.30;99.30
49679;DHT22;35570;48.218;16.326;2023-01-28T00:53:45;2.30;99.30
49679;DHT22;35570;48.218;16.326;2023-01-28T00:56:15;2.30;99.20
49679;DHT22;35570;48.218;16.326;2023-01-28T00:58:41;2.30;99.20
49679;DHT22;35570;48.218;16.326;2023-01-28T01:01:19;2.30;99.20
49679;DHT22;35570;48.218;16.326;2023-01-28T01:03:45;2.30;99.10
49679;DHT22;35570;48.218;16.326;2023-01-28T01:06:13;2.30;99.10
49679;DHT22;35570;48.218;16.326;2023-01-28T01:08:40;2.30;99.20
49679;DHT22;35570;48.218;16.326;2023-01-28T01:11:08;2.30;99.30
49679;DHT22;35570;48.218;16.326;2023-01-28T01:13:35;2.30;99.20
49679;DHT22;35570;48.218;16.326;2023-01-28T01:16:03;2.30;99.30
49679;DHT22;35570;48.218;16.326;2023-01-28T01:18:29;2.30;99.20
49679;DHT22;35570;48.218;16.326;2023-01-28T01:20:55;2.30;99.20
49679;DHT22;35570;48.218;16.326;2023-01-28T01:23:28;2.30;99.30
49679;DHT22;35570;48.218;16.326;2023-01-28T01:25:54;2.30;99.20
49679;DHT22;35570;48.218;16.326;2023-01-28T01:28:21;2.30;99.20
49679;DHT22;35570;48.218;16.326;2023-01-28T01:30:47;2.30;99.20
49679;DHT22;35570;48.218;16.326;2023-01-28T01:33:14;2.30;99.10
49679;DHT22;35570;48.218;16.326;2023-01-28T01:35:41;2.30;99.20
49679;DHT22;35570;48.218;16.326;2023-01-28T01:38:07;2.30;99.20
49679;DHT22;35570;48.218;16.326;2023-01-28T01:40:32;2.20;99.10
49679;DHT22;35570;48.218;16.326;2023-01-28T01:42:58;2.20;99.10
49679;DHT22;35570;48.218;16.326;2023-01-28T01:45:24;2.30;99.10
49679;DHT22;35570;48.218;16.326;2023-01-28T01:48:04;2.30;99.10
49679;DHT22;35570;48.218;16.326;2023-01-28T01:53:34;2.30;99.00
49679;DHT22;35570;48.218;16.326;2023-01-28T01:56:03;2.20;98.90
49679;DHT22;35570;48.218;16.326;2023-01-28T01:58:34;2.20;98.90
49679;DHT22;35570;48.218;16.326;2023-01-28T02:01:01;2.20;99.00
49679;DHT22;35570;48.218;16.326;2023-01-28T02:06:05;2.20;98.80
49679;DHT22;35570;48.218;16.326;2023-01-28T02:08:32;2.20;99.00
49679;DHT22;35570;48.218;16.326;2023-01-28T02:11:01;2.20;99.00
49679;DHT22;35570;48.218;16.326;2023-01-28T02:13:38;2.20;99.00
49679;DHT22;35570;48.218;16.326;2023-01-28T02:16:05;2.20;99.20
49679;DHT22;35570;48.218;16.326;2023-01-28T02:18:32;2.20;99.00
49679;DHT22;35570;48.218;16.326;2023-01-28T02:21:20;2.20;99.00
49679;DHT22;35570;48.218;16.326;2023-01-28T02:32:09;2.20;99.10
49679;DHT22;35570;48.218;16.326;2023-01-28T02:37:16;2.20;99.10
49679;DHT22;35570;48.218;16.326;2023-01-28T02:39:51;2.20;99.20
49679;DHT22;35570;48.218;16.326;2023-01-28T02:42:28;2.20;99.20
49679;DHT22;35570;48.218;16.326;2023-01-28T02:44:54;2.20;99.10
49679;DHT22;35570;48.218;16.326;2023-01-28T02:47:20;2.20;99.10
49679;DHT22;35570;48.218;16.326;2023-01-28T02:50:08;2.20;99.00
49679;DHT22;35570;48.218;16.326;2023-01-28T02:55:35;2.20;99.10
49679;DHT22;35570;48.218;16.326;2023-01-28T03:03:29;2.20;99.20
49679;DHT22;35570;48.218;16.326;2023-01-28T03:06:02;2.20;99.10
49679;DHT22;35570;48.218;16.326;2023-01-28T03:08:38;2.20;99.10
49679;DHT22;35570;48.218;16.326;2023-01-28T03:11:23;2.20;99.10
49679;DHT22;35570;48.218;16.326;2023-01-28T03:14:09;2.20;99.00
49679;DHT22;35570;48.218;16.326;2023-01-28T03:16:56;2.20;99.30
49679;DHT22;35570;48.218;16.326;2023-01-28T03:19:43;2.20;99.30
49679;DHT22;35570;48.218;16.326;2023-01-28T03:22:28;2.20;99.10
49679;DHT22;35570;48.218;16.326;2023-01-28T03:25:14;2.20;99.10
49679;DHT22;35570;48.218;16.326;2023-01-28T03:28:03;2.20;99.10
49679;DHT22;35570;48.218;16.326;2023-01-28T03:31:14;2.10;99.20
49679;DHT22;35570;48.218;16.326;2023-01-28T03:34:00;2.20;99.20
49679;DHT22;35570;48.218;16.326;2023-01-28T03:36:46;2.20;99.20
49679;DHT22;35570;48.218;16.326;2023-01-28T03:39:17;2.20;99.20
49679;DHT22;35570;48.218;16.326;2023-01-28T03:41:54;2.20;99.20
49679;DHT22;35570;48.218;16.326;2023-01-28T03:44:20;2.20;99.20
49679;DHT22;35570;48.218;16.326;2023-01-28T03:47:04;2.20;99.20
49679;DHT22;35570;48.218;16.326;2023-01-28T03:49:31;2.20;99.30
49679;DHT22;35570;48.218;16.326;2023-01-28T03:51:57;2.20;99.40
49679;DHT22;35570;48.218;16.326;2023-01-28T03:54:22;2.20;99.50
49679;DHT22;35570;48.218;16.326;2023-01-28T03:56:48;2.20;99.30
49679;DHT22;35570;48.218;16.326;2023-01-28T03:59:14;2.20;99.30
49679;DHT22;35570;48.218;16.326;2023-01-28T04:01:39;2.20;99.30
49679;DHT22;35570;48.218;16.326;2023-01-28T04:04:05;2.20;99.30
49679;DHT22;35570;48.218;16.326;2023-01-28T04:06:31;2.20;99.30
49679;DHT22;35570;48.218;16.326;2023-01-28T04:08:56;2.20;99.50
49679;DHT22;35570;48.218;16.326;2023-01-28T04:11:27;2.20;99.50
49679;DHT22;35570;48.218;16.326;2023-01-28T04:13:52;2.20;99.30
49679;DHT22;35570;48.218;16.326;2023-01-28T04:16:18;2.20;99.40
49679;DHT22;35570;48.218;16.326;2023-01-28T04:18:45;2.20;99.40
49679;DHT22;35570;48.218;16.326;2023-01-28T04:21:11;2.20;99.50
49679;DHT22;35570;48.218;16.326;2023-01-28T04:23:37;2.10;99.40
49679;DHT22;35570;48.218;16.326;2023-01-28T04:26:03;2.10;99.40
49679;DHT22;35570;48.218;16.326;2023-01-28T04:28:29;2.10;99.40
49679;DHT22;35570;48.218;16.326;2023-01-28T04:30:55;2.10;99.40
49679;DHT22;35570;48.218;16.326;2023-01-28T04:33:21;2.10;99.50
49679;DHT22;35570;48.218;16.326;2023-01-28T04:35:46;2.10;99.40
49679;DHT22;35570;48.218;16.326;2023-01-28T04:38:12;2.10;99.40
49679;DHT22;35570;48.218;16.326;2023-01-28T04:40:37;2.10;99.40
49679;DHT22;35570;48.218;16.326;2023-01-28T04:43:03;2.10;99.30
49679;DHT22;35570;48.218;16.326;2023-01-28T04:45:29;2.10;99.40
49679;DHT22;35570;48.218;16.326;2023-01-28T04:47:55;2.10;99.30
49679;DHT22;35570;48.218;16.326;2023-01-28T04:50:21;2.10;99.30
49679;DHT22;35570;48.218;16.326;2023-01-28T04:52:47;2.10;99.30
49679;DHT22;35570;48.218;16.326;2023-01-28T04:55:12;2.10;99.40
49679;DHT22;35570;48.218;16.326;2023-01-28T04:57:38;2.10;99.40
49679;DHT22;35570;48.218;16.326;2023-01-28T05:00:04;2.10;99.50
49679;DHT22;35570;48.218;16.326;2023-01-28T05:02:30;2.10;99.30
49679;DHT22;35570;48.218;16.326;2023-01-28T05:04:56;2.10;99.40
49679;DHT22;35570;48.218;16.326;2023-01-28T05:07:22;2.10;99.50
49679;DHT22;35570;48.218;16.326;2023-01-28T05:09:47;2.10;99.50
49679;DHT22;35570;48.218;16.326;2023-01-28T05:12:13;2.10;99.50
49679;DHT22;35570;48.218;16.326;2023-01-28T05:14:39;2.10;99.50
49679;DHT22;35570;48.218;16.326;2023-01-28T05:17:04;2.10;99.60
49679;DHT22;35570;48.218;16.326;2023-01-28T05:19:30;2.10;99.60
49679;DHT22;35570;48.218;16.326;2023-01-28T05:21:56;2.10;99.50
49679;DHT22;35570;48.218;16.326;2023-01-28T05:24:21;2.10;99.50
49679;DHT22;35570;48.218;16.326;2023-01-28T05:26:47;2.10;99.60
49679;DHT22;35570;48.218;16.326;2023-01-28T05:29:13;2.00;99.60
49679;DHT22;35570;48.218;16.326;2023-01-28T05:31:38;2.10;99.60
49679;DHT22;35570;48.218;16.326;2023-01-28T05:34:04;2.10;99.60
49679;DHT22;35570;48.218;16.326;2023-01-28T05:36:30;2.00;99.50
49679;DHT22;35570;48.218;16.326;2023-01-28T05:38:55;2.00;99.60
49679;DHT22;35570;48.218;16.326;2023-01-28T05:41:21;2.10;99.60
49679;DHT22;35570;48.218;16.326;2023-01-28T05:43:47;2.00;99.60
49679;DHT22;35570;48.218;16.326;2023-01-28T05:46:12;2.00;99.50
49679;DHT22;35570;48.218;16.326;2023-01-28T05:48:38;2.00;99.60
49679;DHT22;35570;48.218;16.326;2023-01-28T05:51:04;2.00;99.70
49679;DHT22;35570;48.218;16.326;2023-01-28T05:53:30;2.00;99.70
49679;DHT22;35570;48.218;16.326;2023-01-28T05:55:56;2.00;99.70
49679;DHT22;35570;48.218;16.326;2023-01-28T05:58:22;2.00;99.70
49679;DHT22;35570;48.218;16.326;2023-01-28T06:00:48;2.00;99.80
49679;DHT22;35570;48.218;16.326;2023-01-28T06:03:13;2.00;99.90
49679;DHT22;35570;48.218;16.326;2023-01-28T06:05:39;2.00;99.90
49679;DHT22;35570;48.218;16.326;2023-01-28T06:08:05;2.00;99.90
49679;DHT22;35570;48.218;16.326;2023-01-28T06:10:31;2.00;99.90
49679;DHT22;35570;48.218;16.326;2023-01-28T06:12:56;2.00;99.90
49679;DHT22;35570;48.218;16.326;2023-01-28T06:15:22;2.00;99.90
49679;DHT22;35570;48.218;16.326;2023-01-28T06:17:48;2.10;99.90
49679;DHT22;35570;48.218;16.326;2023-01-28T06:20:14;2.00;99.90
49679;DHT22;35570;48.218;16.326;2023-01-28T06:22:41;2.00;99.90
49679;DHT22;35570;48.218;16.326;2023-01-28T06:25:07;2.00;99.90
49679;DHT22;35570;48.218;16.326;2023-01-28T06:27:33;2.00;99.90
49679;DHT22;35570;48.218;16.326;2023-01-28T06:29:59;2.10;99.90
49679;DHT22;35570;48.218;16.326;2023-01-28T06:32:26;2.00;99.90
49679;DHT22;35570;48.218;16.326;2023-01-28T06:34:52;2.00;99.90
49679;DHT22;35570;48.218;16.326;2023-01-28T06:37:18;2.00;99.90
49679;DHT22;35570;48.218;16.326;2023-01-28T06:39:43;2.00;99.90
49679;DHT22;35570;48.218;16.326;2023-01-28T06:42:09;2.00;99.90
49679;DHT22;35570;48.218;16.326;2023-01-28T06:44:35;2.10;99.90
49679;DHT22;35570;48.218;16.326;2023-01-28T06:47:00;2.00;99.80
49679;DHT22;35570;48.218;16.326;2023-01-28T06:49:26;2.00;99.90
49679;DHT22;35570;48.218;16.326;2023-01-28T06:51:52;2.00;99.90
49679;DHT22;35570;48.218;16.326;2023-01-28T06:54:17;2.10;99.90
49679;DHT22;35570;48.218;16.326;2023-01-28T06:56:43;2.00;99.90
49679;DHT22;35570;48.218;16.326;2023-01-28T06:59:08;2.00;99.90
49679;DHT22;35570;48.218;16.326;2023-01-28T07:01:34;2.00;99.90
49679;DHT22;35570;48.218;16.326;2023-01-28T07:04:00;2.10;99.90
49679;DHT22;35570;48.218;16.326;2023-01-28T07:06:25;2.00;99.90
49679;DHT22;35570;48.218;16.326;2023-01-28T07:08:51;2.00;99.80
49679;DHT22;35570;48.218;16.326;2023-01-28T07:11:17;2.00;99.90
49679;DHT22;35570;48.218;16.326;2023-01-28T07:13:43;2.10;99.90
49679;DHT22;35570;48.218;16.326;2023-01-28T07:16:09;2.10;99.90
49679;DHT22;35570;48.218;16.326;2023-01-28T07:18:34;2.00;99.80
49679;DHT22;35570;48.218;16.326;2023-01-28T07:21:00;2.10;99.90
49679;DHT22;35570;48.218;16.326;2023-01-28T07:23:26;2.10;99.90
49679;DHT22;35570;48.218;16.326;2023-01-28T07:25:52;2.10;99.80
49679;DHT22;35570;48.218;16.326;2023-01-28T07:28:18;2.10;99.80
49679;DHT22;35570;48.218;16.326;2023-01-28T07:30:49;2.10;99.90
49679;DHT22;35570;48.218;16.326;2023-01-28T07:33:15;2.10;99.80
49679;DHT22;35570;48.218;16.326;2023-01-28T07:35:42;2.10;99.90
49679;DHT22;35570;48.218;16.326;2023-01-28T07:38:07;2.10;99.80
49679;DHT22;35570;48.218;16.326;2023-01-28T07:40:33;2.10;99.90
49679;DHT22;35570;48.218;16.326;2023-01-28T07:42:59;2.10;99.90
49679;DHT22;35570;48.218;16.326;2023-01-28T07:45:25;2.20;99.90
49679;DHT22;35570;48.218;16.326;2023-01-28T07:47:57;2.10;99.80
49679;DHT22;35570;48.218;16.326;2023-01-28T07:50:23;2.20;99.90
49679;DHT22;35570;48.218;16.326;2023-01-28T07:52:49;2.20;99.80
49679;DHT22;35570;48.218;16.326;2023-01-28T07:55:15;2.20;99.80
49679;DHT22;35570;48.218;16.326;2023-01-28T07:57:48;2.20;99.90
49679;DHT22;35570;48.218;16.326;2023-01-28T08:00:15;2.20;99.90
49679;DHT22;35570;48.218;16.326;2023-01-28T08:02:41;2.20;99.90
49679;DHT22;35570;48.218;16.326;2023-01-28T08:05:09;2.20;99.90
49679;DHT22;35570;48.218;16.326;2023-01-28T08:07:35;2.20;99.90
49679;DHT22;35570;48.218;16.326;2023-01-28T08:10:00;2.20;99.90
49679;DHT22;35570;48.218;16.326;2023-01-28T08:12:26;2.30;99.90
49679;DHT22;35570;48.218;16.326;2023-01-28T08:14:52;2.30;99.90
49679;DHT22;35570;48.218;16.326;2023-01-28T08:17:17;2.30;99.90
49679;DHT22;35570;48.218;16.326;2023-01-28T08:19:43;2.30;99.90
49679;DHT22;35570;48.218;16.326;2023-01-28T08:22:08;2.30;99.90
49679;DHT22;35570;48.218;16.326;2023-01-28T08:24:34;2.40;99.90
49679;DHT22;35570;48.218;16.326;2023-01-28T08:27:00;2.40;99.90
49679;DHT22;35570;48.218;16.326;2023-01-28T08:29:26;2.40;99.90
49679;DHT22;35570;48.218;16.326;2023-01-28T08:31:51;2.40;99.90
49679;DHT22;35570;48.218;16.326;2023-01-28T08:34:17;2.40;99.90
49679;DHT22;35570;48.218;16.326;2023-01-28T08:36:43;2.40;99.90
49679;DHT22;35570;48.218;16.326;2023-01-28T08:39:08;2.40;99.90
49679;DHT22;35570;48.218;16.326;2023-01-28T08:41:34;2.40;99.90
49679;DHT22;35570;48.218;16.326;2023-01-28T08:44:00;2.40;99.90
49679;DHT22;35570;48.218;16.326;2023-01-28T08:46:25;2.50;99.90
49679;DHT22;35570;48.218;16.326;2023-01-28T08:48:51;2.50;99.90
49679;DHT22;35570;48.218;16.326;2023-01-28T08:51:16;2.50;99.90
49679;DHT22;35570;48.218;16.326;2023-01-28T08:53:42;2.50;99.90
49679;DHT22;35570;48.218;16.326;2023-01-28T08:56:08;2.50;99.90
49679;DHT22;35570;48.218;16.326;2023-01-28T08:58:33;2.50;99.90
49679;DHT22;35570;48.218;16.326;2023-01-28T09:01:04;2.50;99.90
49679;DHT22;35570;48.218;16.326;2023-01-28T09:03:30;2.60;99.90
49679;DHT22;35570;48.218;16.326;2023-01-28T09:06:00;2.60;99.90
49679;DHT22;35570;48.218;16.326;2023-01-28T09:08:26;2.60;99.90
49679;DHT22;35570;48.218;16.326;2023-01-28T09:10:56;2.60;99.90
49679;DHT22;35570;48.218;16.326;2023-01-28T09:13:22;2.60;99.90
49679;DHT22;35570;48.218;16.326;2023-01-28T09:15:48;2.60;99.90
49679;DHT22;35570;48.218;16.326;2023-01-28T09:18:15;2.60;99.90
49679;DHT22;35570;48.218;16.326;2023-01-28T09:20:41;2.60;99.90
49679;DHT22;35570;48.218;16.326;2023-01-28T09:23:07;2.60;99.90
49679;DHT22;35570;48.218;16.326;2023-01-28T09:25:33;2.60;99.90
49679;DHT22;35570;48.218;16.326;2023-01-28T09:28:00;2.60;99.90
49679;DHT22;35570;48.218;16.326;2023-01-28T09:30:27;2.60;99.90
49679;DHT22;35570;48.218;16.326;2023-01-28T09:32:53;2.70;99.90
49679;DHT22;35570;48.218;16.326;2023-01-28T09:35:19;2.70;99.90
49679;DHT22;35570;48.218;16.326;2023-01-28T09:37:46;2.70;99.90
49679;DHT22;35570;48.218;16.326;2023-01-28T09:40:36;2.70;99.90
49679;DHT22;35570;48.218;16.326;2023-01-28T09:45:43;2.80;99.90
49679;DHT22;35570;48.218;16.326;2023-01-28T09:48:20;2.80;99.90
49679;DHT22;35570;48.218;16.326;2023-01-28T09:50:50;2.90;99.90
49679;DHT22;35570;48.218;16.326;2023-01-28T09:53:27;2.90;99.90
49679;DHT22;35570;48.218;16.326;2023-01-28T09:56:04;2.90;99.90
49679;DHT22;35570;48.218;16.326;2023-01-28T09:58:31;3.00;99.90
49679;DHT22;35570;48.218;16.326;2023-01-28T10:02:13;3.00;99.90
49679;DHT22;35570;48.218;16.326;2023-01-28T10:15:18;3.10;99.90
49679;DHT22;35570;48.218;16.326;2023-01-28T10:17:51;3.20;99.90
49679;DHT22;35570;48.218;16.326;2023-01-28T10:20:27;3.20;99.90
49679;DHT22;35570;48.218;16.326;2023-01-28T10:25:36;3.30;99.90
49679;DHT22;35570;48.218;16.326;2023-01-28T10:28:12;3.30;99.90
49679;DHT22;35570;48.218;16.326;2023-01-28T10:30:41;3.30;99.90
49679;DHT22;35570;48.218;16.326;2023-01-28T10:35:43;3.40;99.90
49679;DHT22;35570;48.218;16.326;2023-01-28T10:38:14;3.50;99.80
49679;DHT22;35570;48.218;16.326;2023-01-28T10:40:41;3.50;99.70
49679;DHT22;35570;48.218;16.326;2023-01-28T10:43:07;3.50;99.60
49679;DHT22;35570;48.218;16.326;2023-01-28T10:46:14;3.50;99.50
49679;DHT22;35570;48.218;16.326;2023-01-28T10:51:12;3.60;99.40
49679;DHT22;35570;48.218;16.326;2023-01-28T10:53:44;3.60;99.30
49679;DHT22;35570;48.218;16.326;2023-01-28T10:56:16;3.70;99.40
49679;DHT22;35570;48.218;16.326;2023-01-28T10:59:02;3.60;99.40
49679;DHT22;35570;48.218;16.326;2023-01-28T11:04:16;3.60;99.50
49679;DHT22;35570;48.218;16.326;2023-01-28T11:06:51;3.60;99.80
49679;DHT22;35570;48.218;16.326;2023-01-28T11:09:26;3.60;99.70
49679;DHT22;35570;48.218;16.326;2023-01-28T11:11:51;3.50;99.80
49679;DHT22;35570;48.218;16.326;2023-01-28T11:14:20;3.50;99.80
49679;DHT22;35570;48.218;16.326;2023-01-28T11:16:46;3.50;99.90
49679;DHT22;35570;48.218;16.326;2023-01-28T11:19:12;3.50;99.90
49679;DHT22;35570;48.218;16.326;2023-01-28T11:21:38;3.50;99.90
49679;DHT22;35570;48.218;16.326;2023-01-28T11:24:12;3.40;99.90
49679;DHT22;35570;48.218;16.326;2023-01-28T11:26:43;3.40;99.90
49679;DHT22;35570;48.218;16.326;2023-01-28T11:29:32;3.40;99.90
49679;DHT22;35570;48.218;16.326;2023-01-28T11:31:59;3.40;99.90
49679;DHT22;35570;48.218;16.326;2023-01-28T11:34:32;3.40;99.90
49679;DHT22;35570;48.218;16.326;2023-01-28T11:37:13;3.40;99.90
49679;DHT22;35570;48.218;16.326;2023-01-28T11:39:41;3.50;99.90
49679;DHT22;35570;48.218;16.326;2023-01-28T11:42:21;3.50;99.90
49679;DHT22;35570;48.218;16.326;2023-01-28T11:44:47;3.60;99.90
49679;DHT22;35570;48.218;16.326;2023-01-28T11:47:28;3.60;99.90
49679;DHT22;35570;48.218;16.326;2023-01-28T11:58:15;3.60;99.90
49679;DHT22;35570;48.218;16.326;2023-01-28T12:09:32;3.70;99.90
49679;DHT22;35570;48.218;16.326;2023-01-28T12:20:24;3.70;99.90
49679;DHT22;35570;48.218;16.326;2023-01-28T12:25:58;3.80;99.90
49679;DHT22;35570;48.218;16.326;2023-01-28T12:31:55;3.80;99.90
49679;DHT22;35570;48.218;16.326;2023-01-28T12:37:12;3.90;99.90
49679;DHT22;35570;48.218;16.326;2023-01-28T12:42:41;3.90;99.90
49679;DHT22;35570;48.218;16.326;2023-01-28T12:45:17;3.90;99.90
49679;DHT22;35570;48.218;16.326;2023-01-28T12:47:46;3.90;99.90
49679;DHT22;35570;48.218;16.326;2023-01-28T12:50:22;3.90;99.90
49679;DHT22;35570;48.218;16.326;2023-01-28T12:52:56;3.90;99.90
49679;DHT22;35570;48.218;16.326;2023-01-28T12:57:51;3.90;99.90
49679;DHT22;35570;48.218;16.326;2023-01-28T13:00:31;3.90;99.90
49679;DHT22;35570;48.218;16.326;2023-01-28T13:03:27;3.90;99.90
49679;DHT22;35570;48.218;16.326;2023-01-28T13:05:59;3.90;99.90
49679;DHT22;35570;48.218;16.326;2023-01-28T13:08:27;3.90;99.90
49679;DHT22;35570;48.218;16.326;2023-01-28T13:10:56;3.90;99.90
49679;DHT22;35570;48.218;16.326;2023-01-28T13:13:34;3.90;99.90
49679;DHT22;35570;48.218;16.326;2023-01-28T13:16:02;3.90;99.90
49679;DHT22;35570;48.218;16.326;2023-01-28T13:20:57;3.90;99.90
49679;DHT22;35570;48.218;16.326;2023-01-28T13:23:37;3.80;99.90
49679;DHT22;35570;48.218;16.326;2023-01-28T13:28:45;3.80;99.90
49679;DHT22;35570;48.218;16.326;2023-01-28T13:31:13;3.80;99.90
49679;DHT22;35570;48.218;16.326;2023-01-28T13:33:45;3.80;99.90
49679;DHT22;35570;48.218;16.326;2023-01-28T13:39:14;3.70;99.90
49679;DHT22;35570;48.218;16.326;2023-01-28T13:41:51;3.70;99.90
49679;DHT22;35570;48.218;16.326;2023-01-28T13:44:31;3.70;99.90
49679;DHT22;35570;48.218;16.326;2023-01-28T13:54:52;3.60;99.90
49679;DHT22;35570;48.218;16.326;2023-01-28T14:17:56;3.60;99.90
49679;DHT22;35570;48.218;16.326;2023-01-28T14:20:26;3.60;99.90
49679;DHT22;35570;48.218;16.326;2023-01-28T14:22:59;3.60;99.90
49679;DHT22;35570;48.218;16.326;2023-01-28T14:33:47;3.50;99.90
49679;DHT22;35570;48.218;16.326;2023-01-28T14:36:13;3.50;99.90
49679;DHT22;35570;48.218;16.326;2023-01-28T14:38:41;3.50;99.90
49679;DHT22;35570;48.218;16.326;2023-01-28T14:41:08;3.50;99.90
49679;DHT22;35570;48.218;16.326;2023-01-28T14:43:35;3.50;99.90
49679;DHT22;35570;48.218;16.326;2023-01-28T14:46:14;3.50;99.90
49679;DHT22;35570;48.218;16.326;2023-01-28T14:54:13;3.40;99.90
49679;DHT22;35570;48.218;16.326;2023-01-28T15:01:44;3.30;99.90
49679;DHT22;35570;48.218;16.326;2023-01-28T15:04:39;3.40;99.90
49679;DHT22;35570;48.218;16.326;2023-01-28T15:09:41;3.30;99.90
49679;DHT22;35570;48.218;16.326;2023-01-28T15:12:08;3.30;99.90
49679;DHT22;35570;48.218;16.326;2023-01-28T15:14:34;3.30;99.90
49679;DHT22;35570;48.218;16.326;2023-01-28T15:17:00;3.30;99.90
49679;DHT22;35570;48.218;16.326;2023-01-28T15:19:30;3.20;99.90
49679;DHT22;35570;48.218;16.326;2023-01-28T15:21:58;3.20;99.90
49679;DHT22;35570;48.218;16.326;2023-01-28T15:24:25;3.20;99.90
49679;DHT22;35570;48.218;16.326;2023-01-28T15:26:51;3.20;99.90
49679;DHT22;35570;48.218;16.326;2023-01-28T15:29:24;3.20;99.90
49679;DHT22;35570;48.218;16.326;2023-01-28T15:31:50;3.20;99.90
49679;DHT22;35570;48.218;16.326;2023-01-28T15:34:19;3.10;99.90
49679;DHT22;35570;48.218;16.326;2023-01-28T15:36:46;3.10;99.90
49679;DHT22;35570;48.218;16.326;2023-01-28T15:39:24;3.10;99.90
49679;DHT22;35570;48.218;16.326;2023-01-28T15:42:00;3.10;99.90
49679;DHT22;35570;48.218;16.326;2023-01-28T15:44:36;3.10;99.90
49679;DHT22;35570;48.218;16.326;2023-01-28T15:47:13;3.10;99.90
49679;DHT22;35570;48.218;16.326;2023-01-28T15:49:43;3.00;99.90
49679;DHT22;35570;48.218;16.326;2023-01-28T15:52:12;3.00;99.90
49679;DHT22;35570;48.218;16.326;2023-01-28T15:54:41;3.00;99.90
49679;DHT22;35570;48.218;16.326;2023-01-28T15:57:21;3.00;99.90
49679;DHT22;35570;48.218;16.326;2023-01-28T15:59:49;3.00;99.90
49679;DHT22;35570;48.218;16.326;2023-01-28T16:02:23;3.00;99.90
49679;DHT22;35570;48.218;16.326;2023-01-28T16:04:57;3.00;99.90
49679;DHT22;35570;48.218;16.326;2023-01-28T16:07:26;3.00;99.90
49679;DHT22;35570;48.218;16.326;2023-01-28T16:09:54;3.00;99.90
49679;DHT22;35570;48.218;16.326;2023-01-28T16:12:21;3.00;99.90
49679;DHT22;35570;48.218;16.326;2023-01-28T16:14:54;3.00;99.90
49679;DHT22;35570;48.218;16.326;2023-01-28T16:17:28;3.00;99.90
49679;DHT22;35570;48.218;16.326;2023-01-28T16:20:03;2.90;99.90
49679;DHT22;35570;48.218;16.326;2023-01-28T16:22:36;2.90;99.90
49679;DHT22;35570;48.218;16.326;2023-01-28T16:25:28;2.90;99.90
49679;DHT22;35570;48.218;16.326;2023-01-28T16:27:56;2.90;99.90
49679;DHT22;35570;48.218;16.326;2023-01-28T16:30:23;2.90;99.90
49679;DHT22;35570;48.218;16.326;2023-01-28T16:32:49;2.90;99.90
49679;DHT22;35570;48.218;16.326;2023-01-28T16:35:18;2.90;99.90
49679;DHT22;35570;48.218;16.326;2023-01-28T16:37:45;2.90;99.90
49679;DHT22;35570;48.218;16.326;2023-01-28T16:40:13;2.90;99.90
49679;DHT22;35570;48.218;16.326;2023-01-28T16:42:39;2.90;99.90
49679;DHT22;35570;48.218;16.326;2023-01-28T16:45:06;2.90;99.90
49679;DHT22;35570;48.218;16.326;2023-01-28T16:47:32;2.90;99.90
49679;DHT22;35570;48.218;16.326;2023-01-28T16:49:58;2.90;99.90
49679;DHT22;35570;48.218;16.326;2023-01-28T16:52:23;2.90;99.90
49679;DHT22;35570;48.218;16.326;2023-01-28T16:54:49;2.90;99.90
49679;DHT22;35570;48.218;16.326;2023-01-28T16:57:17;2.90;99.90
49679;DHT22;35570;48.218;16.326;2023-01-28T16:59:44;2.90;99.90
49679;DHT22;35570;48.218;16.326;2023-01-28T17:02:15;2.90;99.90
49679;DHT22;35570;48.218;16.326;2023-01-28T17:04:41;2.90;99.90
49679;DHT22;35570;48.218;16.326;2023-01-28T17:07:07;2.90;99.90
49679;DHT22;35570;48.218;16.326;2023-01-28T17:09:33;2.80;99.90
49679;DHT22;35570;48.218;16.326;2023-01-28T17:12:00;2.80;99.90
49679;DHT22;35570;48.218;16.326;2023-01-28T17:14:26;2.80;99.90
49679;DHT22;35570;48.218;16.326;2023-01-28T17:16:52;2.80;99.90
49679;DHT22;35570;48.218;16.326;2023-01-28T17:19:18;2.80;99.90
49679;DHT22;35570;48.218;16.326;2023-01-28T17:21:44;2.80;99.90
49679;DHT22;35570;48.218;16.326;2023-01-28T17:24:09;2.80;99.90
49679;DHT22;35570;48.218;16.326;2023-01-28T17:26:35;2.80;99.90
49679;DHT22;35570;48.218;16.326;2023-01-28T17:29:06;2.80;99.90
49679;DHT22;35570;48.218;16.326;2023-01-28T17:31:32;2.80;99.90
49679;DHT22;35570;48.218;16.326;2023-01-28T17:34:01;2.80;99.90
49679;DHT22;35570;48.218;16.326;2023-01-28T17:36:27;2.80;99.90
49679;DHT22;35570;48.218;16.326;2023-01-28T17:38:54;2.80;99.90
49679;DHT22;35570;48.218;16.326;2023-01-28T17:41:20;2.80;99.90
49679;DHT22;35570;48.218;16.326;2023-01-28T17:43:50;2.80;99.90
49679;DHT22;35570;48.218;16.326;2023-01-28T17:46:16;2.80;99.90
49679;DHT22;35570;48.218;16.326;2023-01-28T17:48:43;2.80;99.90
49679;DHT22;35570;48.218;16.326;2023-01-28T17:51:11;2.90;99.90
49679;DHT22;35570;48.218;16.326;2023-01-28T17:53:38;2.90;99.90
49679;DHT22;35570;48.218;16.326;2023-01-28T17:56:04;2.90;99.90
49679;DHT22;35570;48.218;16.326;2023-01-28T17:58:31;2.90;99.90
49679;DHT22;35570;48.218;16.326;2023-01-28T18:00:57;2.90;99.90
49679;DHT22;35570;48.218;16.326;2023-01-28T18:03:23;2.90;99.90
49679;DHT22;35570;48.218;16.326;2023-01-28T18:05:58;2.90;99.90
49679;DHT22;35570;48.218;16.326;2023-01-28T18:08:25;2.90;99.90